createdAt,value
2019-01-19T00:01:04.804Z,0.80
2019-01-19T00:04:25.595Z,0.80
2019-01-19T00:07:11.913Z,0.80
2019-01-19T00:10:04.770Z,0.80
2019-01-19T00:13:01.024Z,0.80
2019-01-19T00:15:42.094Z,0.80
2019-01-19T00:18:51.890Z,0.80
2019-01-19T00:21:53.926Z,0.80
2019-01-19T00:24:52.867Z,0.70
2019-01-19T00:27:44.000Z,0.70
2019-01-19T00:31:10.555Z,0.70
2019-01-19T00:34:04.685Z,0.60
2019-01-19T00:36:47.642Z,0.60
2019-01-19T00:39:42.454Z,0.70
2019-01-19T00:42:33.842Z,0.60
2019-01-19T00:45:50.098Z,0.50
2019-01-19T00:48:43.212Z,0.50
2019-01-19T00:51:24.345Z,0.40
2019-01-19T00:54:03.260Z,0.50
2019-01-19T00:56:56.949Z,0.50
2019-01-19T00:59:27.838Z,0.50
2019-01-19T01:02:21.239Z,0.50
2019-01-19T01:04:52.038Z,0.50
2019-01-19T01:07:50.468Z,0.40
2019-01-19T01:10:58.671Z,0.40
2019-01-19T01:13:37.086Z,0.40
2019-01-19T01:16:49.439Z,0.30
2019-01-19T01:20:10.369Z,0.40
2019-01-19T01:23:05.868Z,0.30
2019-01-19T01:26:23.421Z,0.30
2019-01-19T01:29:15.103Z,0.20
2019-01-19T01:32:01.398Z,0.20
2019-01-19T01:35:19.012Z,0.20
2019-01-19T01:38:15.411Z,0.10
2019-01-19T01:41:22.943Z,0.10
2019-01-19T01:44:17.196Z,0.10
2019-01-19T01:47:35.599Z,0.10
2019-01-19T01:50:16.585Z,0.20
2019-01-19T01:53:21.095Z,0.20
2019-01-19T01:55:55.341Z,0.10
2019-01-19T01:58:43.444Z,0.10
2019-01-19T02:01:20.023Z,0.10
2019-01-19T02:04:10.740Z,0.10
2019-01-19T02:06:55.032Z,0.00
2019-01-19T02:09:52.129Z,0.00
2019-01-19T02:13:15.742Z,0.00
2019-01-19T02:16:18.662Z,0.00
2019-01-19T02:19:06.713Z,0.00
2019-01-19T02:22:19.010Z,0.00
2019-01-19T02:25:29.392Z,0.00
2019-01-19T02:28:27.015Z,0.10
2019-01-19T02:31:31.306Z,0.00
2019-01-19T02:34:40.113Z,0.10
2019-01-19T02:37:46.251Z,0.10
2019-01-19T02:40:44.694Z,0.10
2019-01-19T02:43:38.417Z,0.10
2019-01-19T02:47:05.121Z,0.10
2019-01-19T02:50:08.148Z,0.00
2019-01-19T02:52:58.150Z,0.10
2019-01-19T02:55:49.759Z,0.10
2019-01-19T02:58:45.223Z,0.10
2019-01-19T03:01:48.672Z,0.10
2019-01-19T03:04:57.212Z,0.00
2019-01-19T03:07:58.067Z,0.10
2019-01-19T03:10:49.559Z,0.10
2019-01-19T03:13:38.195Z,0.10
2019-01-19T03:16:55.702Z,0.00
2019-01-19T03:20:18.702Z,0.00
2019-01-19T03:23:06.266Z,0.00
2019-01-19T03:25:58.221Z,0.00
2019-01-19T03:28:47.480Z,0.00
2019-01-19T03:31:52.760Z,0.00
2019-01-19T03:34:34.552Z,0.00
2019-01-19T03:37:48.318Z,0.00
2019-01-19T03:40:36.508Z,0.00
2019-01-19T03:43:39.535Z,-0.10
2019-01-19T03:47:03.440Z,-0.10
2019-01-19T03:50:05.644Z,-0.10
2019-01-19T03:53:16.495Z,-0.10
2019-01-19T03:56:28.084Z,-0.20
2019-01-19T03:59:10.881Z,-0.20
2019-01-19T04:02:16.132Z,-0.20
2019-01-19T04:05:17.362Z,-0.30
2019-01-19T04:08:47.011Z,-0.30
2019-01-19T04:11:34.984Z,-0.30
2019-01-19T04:14:43.359Z,-0.30
2019-01-19T04:17:38.730Z,-0.30
2019-01-19T04:20:59.345Z,-0.30
2019-01-19T04:23:26.116Z,-0.30
2019-01-19T04:25:59.375Z,-0.30
2019-01-19T04:28:26.096Z,-0.30
2019-01-19T04:30:52.882Z,-0.30
2019-01-19T04:33:19.643Z,-0.20
2019-01-19T04:35:46.415Z,-0.30
2019-01-19T04:38:13.197Z,-0.30
2019-01-19T04:40:40.106Z,-0.30
2019-01-19T04:43:06.937Z,-0.30
2019-01-19T04:45:33.743Z,-0.30
2019-01-19T04:48:00.578Z,-0.30
2019-01-19T04:50:27.305Z,-0.40
2019-01-19T04:53:00.098Z,-0.40
2019-01-19T04:55:26.812Z,-0.50
2019-01-19T04:57:53.570Z,-0.50
2019-01-19T05:00:20.315Z,-0.50
2019-01-19T05:02:47.033Z,-0.60
2019-01-19T05:05:13.789Z,-0.60
2019-01-19T05:07:40.528Z,-0.60
2019-01-19T05:10:08.259Z,-0.70
2019-01-19T05:12:36.219Z,-0.60
2019-01-19T05:15:08.021Z,-0.70
2019-01-19T05:17:34.751Z,-0.70
2019-01-19T05:20:01.579Z,-0.70
2019-01-19T05:22:28.492Z,-0.70
2019-01-19T05:24:55.303Z,-0.60
2019-01-19T05:27:22.074Z,-0.60
2019-01-19T05:29:48.791Z,-0.60
2019-01-19T05:32:15.499Z,-0.60
2019-01-19T05:34:42.331Z,-0.60
2019-01-19T05:37:09.081Z,-0.60
2019-01-19T05:39:35.880Z,-0.60
2019-01-19T05:42:02.591Z,-0.50
2019-01-19T05:44:29.297Z,-0.60
2019-01-19T05:46:56.029Z,-0.60
2019-01-19T05:49:22.804Z,-0.60
2019-01-19T05:51:49.544Z,-0.60
2019-01-19T05:54:16.257Z,-0.60
2019-01-19T05:56:43.061Z,-0.60
2019-01-19T05:59:09.935Z,-0.60
2019-01-19T06:01:36.825Z,-0.70
